createdAt,value
2019-04-23T00:00:13.530Z,8.55
2019-04-23T00:01:23.596Z,8.62
2019-04-23T00:02:19.732Z,8.91
2019-04-23T00:04:18.326Z,8.76
2019-04-23T00:05:21.409Z,8.88
2019-04-23T00:07:27.593Z,8.68
2019-04-23T00:10:19.360Z,8.22
2019-04-23T00:11:20.083Z,8.92
2019-04-23T00:12:30.095Z,8.52
2019-04-23T00:13:26.682Z,8.45
2019-04-23T00:14:21.072Z,8.83
2019-04-23T00:15:21.781Z,8.78
2019-04-23T00:16:23.990Z,8.34
2019-04-23T00:17:26.102Z,8.38
2019-04-23T00:18:24.844Z,8.29
2019-04-23T00:19:18.921Z,8.62
2019-04-23T00:20:18.878Z,8.07
2019-04-23T00:21:24.301Z,8.82
2019-04-23T00:23:16.382Z,8.72
2019-04-23T00:24:28.199Z,8.62
2019-04-23T00:26:24.078Z,8.07
2019-04-23T00:27:29.273Z,8.43
2019-04-23T00:28:20.454Z,8.51
2019-04-23T00:29:18.945Z,8.61
2019-04-23T00:30:20.258Z,8.63
2019-04-23T00:31:18.510Z,8.50
2019-04-23T00:32:25.162Z,8.65
2019-04-23T00:33:21.829Z,8.65
2019-04-23T00:34:17.801Z,8.30
2019-04-23T00:35:18.075Z,8.02
2019-04-23T00:36:28.782Z,8.32
2019-04-23T00:37:25.458Z,8.52
2019-04-23T00:39:18.915Z,8.60
2019-04-23T00:40:20.410Z,8.32
2019-04-23T00:41:16.209Z,8.42
2019-04-23T00:42:23.527Z,8.47
2019-04-23T00:43:21.841Z,8.04
2019-04-23T00:44:29.016Z,8.49
2019-04-23T00:45:18.153Z,8.38
2019-04-23T00:46:25.185Z,8.14
2019-04-23T00:47:20.934Z,8.47
2019-04-23T00:48:28.248Z,8.40
2019-04-23T00:50:22.885Z,8.02
2019-04-23T00:51:18.138Z,7.52
2019-04-23T00:52:24.058Z,8.10
2019-04-23T00:55:15.897Z,7.95
2019-04-23T00:56:32.140Z,8.32
2019-04-23T00:57:24.428Z,8.21
2019-04-23T00:58:21.192Z,7.99
2019-04-23T00:59:22.259Z,8.25
2019-04-23T01:00:26.388Z,7.91
2019-04-23T01:01:18.039Z,8.21
2019-04-23T01:02:25.027Z,7.90
2019-04-23T01:03:17.425Z,8.12
2019-04-23T01:04:20.477Z,8.27
2019-04-23T01:05:18.330Z,8.30
2019-04-23T01:06:19.344Z,8.13
2019-04-23T01:07:18.870Z,7.70
2019-04-23T01:09:14.067Z,8.04
2019-04-23T01:10:24.600Z,8.47
2019-04-23T01:11:16.356Z,8.42
2019-04-23T01:12:22.829Z,7.97
2019-04-23T01:13:25.175Z,8.26
2019-04-23T01:15:25.456Z,8.26
2019-04-23T01:16:18.105Z,8.35
2019-04-23T01:17:30.241Z,8.47
2019-04-23T01:18:32.250Z,8.41
2019-04-23T01:19:24.543Z,8.26
2019-04-23T01:20:58.857Z,8.06
2019-04-23T01:22:00.031Z,7.61
2019-04-23T01:22:59.038Z,7.91
2019-04-23T01:24:04.379Z,8.35
2019-04-23T01:25:11.227Z,8.02
2019-04-23T01:26:15.465Z,7.54
2019-04-23T01:28:17.461Z,8.32
2019-04-23T01:29:12.621Z,8.18
2019-04-23T01:30:19.707Z,8.21
2019-04-23T01:31:16.558Z,8.11
2019-04-23T01:34:29.172Z,8.09
2019-04-23T01:36:21.476Z,8.22
2019-04-23T01:37:26.371Z,7.25
2019-04-23T01:38:32.508Z,8.36
2019-04-23T01:40:27.274Z,8.18
2019-04-23T01:42:37.354Z,8.13
2019-04-23T01:43:28.862Z,7.96
2019-04-23T01:44:33.754Z,7.78
2019-04-23T01:45:26.066Z,8.00
2019-04-23T01:46:23.485Z,8.11
2019-04-23T01:47:24.444Z,7.99
2019-04-23T01:48:13.268Z,8.07
2019-04-23T01:50:14.272Z,7.80
2019-04-23T01:51:31.124Z,8.02
2019-04-23T01:52:16.147Z,8.07
2019-04-23T01:54:25.570Z,8.15
2019-04-23T01:56:24.291Z,6.98
2019-04-23T01:59:24.628Z,7.92
2019-04-23T02:00:17.351Z,7.73
2019-04-23T02:01:25.718Z,7.57
2019-04-23T02:02:31.637Z,7.86
2019-04-23T02:03:15.213Z,7.99
2019-04-23T02:04:18.818Z,7.63
2019-04-23T02:06:16.639Z,7.70
2019-04-23T02:07:29.950Z,7.89
2019-04-23T02:08:20.851Z,7.70
2019-04-23T02:09:25.522Z,7.19
2019-04-23T02:10:38.040Z,7.64
2019-04-23T02:11:11.521Z,7.51
2019-04-23T02:12:28.272Z,7.52
2019-04-23T02:14:18.251Z,7.79
2019-04-23T02:15:23.117Z,7.49
2019-04-23T02:16:24.588Z,7.47
2019-04-23T02:17:15.738Z,7.03
2019-04-23T02:19:23.572Z,6.74
2019-04-23T02:21:22.568Z,7.35
2019-04-23T02:22:31.544Z,7.50
2019-04-23T02:23:26.240Z,7.43
2019-04-23T02:25:27.993Z,7.18
2019-04-23T02:26:17.061Z,7.53
2019-04-23T02:27:29.603Z,7.25
2019-04-23T02:28:25.465Z,7.49
2019-04-23T02:29:38.122Z,6.83
2019-04-23T02:31:44.819Z,7.30
2019-04-23T02:32:34.054Z,7.18
2019-04-23T02:33:36.279Z,6.99
2019-04-23T02:35:42.376Z,7.17
2019-04-23T02:36:29.484Z,7.49
2019-04-23T02:39:22.631Z,7.40
2019-04-23T02:40:38.042Z,7.46
2019-04-23T02:41:25.134Z,6.85
2019-04-23T02:42:49.607Z,7.56
2019-04-23T02:44:36.926Z,7.35
2019-04-23T02:46:09.815Z,7.36
2019-04-23T02:47:32.547Z,6.95
2019-04-23T02:48:30.727Z,7.16
2019-04-23T02:49:27.166Z,7.72
2019-04-23T02:51:22.162Z,6.83
2019-04-23T02:52:34.240Z,7.12
2019-04-23T02:53:44.298Z,7.36
2019-04-23T02:54:29.130Z,7.50
2019-04-23T02:55:39.284Z,7.45
2019-04-23T02:56:37.629Z,6.95
2019-04-23T02:59:39.948Z,7.55
2019-04-23T03:01:21.717Z,7.85
2019-04-23T03:03:38.615Z,7.85
2019-04-23T03:05:19.851Z,7.08
2019-04-23T03:06:38.116Z,7.92
2019-04-23T03:07:39.011Z,7.78
2019-04-23T03:09:36.397Z,7.92
2019-04-23T03:10:31.327Z,7.57
2019-04-23T03:15:39.503Z,7.69
2019-04-23T03:16:38.163Z,7.76
2019-04-23T03:17:27.124Z,7.81
2019-04-23T03:19:15.274Z,7.82
2019-04-23T03:20:35.037Z,7.89
2019-04-23T03:21:35.652Z,7.95
2019-04-23T03:22:14.569Z,7.79
2019-04-23T03:23:29.151Z,7.84
2019-04-23T03:24:38.883Z,7.81
2019-04-23T03:28:37.699Z,7.54
2019-04-23T03:29:26.452Z,7.82
2019-04-23T03:30:29.655Z,7.75
2019-04-23T03:32:45.288Z,7.59
2019-04-23T03:34:02.631Z,7.98
2019-04-23T03:36:10.868Z,7.92
2019-04-23T03:37:04.105Z,7.52
2019-04-23T03:39:44.223Z,7.45
2019-04-23T03:40:13.775Z,7.96
2019-04-23T03:41:21.654Z,8.12
2019-04-23T03:42:38.719Z,7.63
2019-04-23T03:43:35.336Z,7.18
2019-04-23T03:44:27.093Z,8.00
2019-04-23T03:46:29.316Z,7.24
2019-04-23T03:47:33.079Z,7.57
2019-04-23T03:48:26.206Z,7.64
2019-04-23T03:49:32.586Z,7.72
2019-04-23T03:51:38.281Z,7.43
2019-04-23T03:52:34.880Z,7.98
2019-04-23T03:55:28.059Z,7.34
2019-04-23T03:56:29.457Z,7.71
2019-04-23T03:57:20.291Z,7.79
2019-04-23T03:58:39.098Z,7.71
2019-04-23T03:59:39.361Z,7.79
2019-04-23T04:00:24.889Z,7.82
2019-04-23T04:01:29.875Z,7.74
2019-04-23T04:02:34.026Z,6.15
2019-04-23T04:03:53.004Z,7.06
2019-04-23T04:08:25.904Z,7.26
2019-04-23T04:09:37.006Z,7.79
2019-04-23T04:10:42.191Z,7.96
2019-04-23T04:11:25.619Z,7.90
2019-04-23T04:12:21.750Z,7.77
2019-04-23T04:14:38.225Z,7.96
2019-04-23T04:15:35.630Z,7.78
2019-04-23T04:16:17.812Z,7.81
2019-04-23T04:18:38.823Z,7.63
2019-04-23T04:20:24.813Z,7.95
2019-04-23T04:21:35.839Z,7.65
2019-04-23T04:22:43.888Z,7.99
2019-04-23T04:25:33.593Z,7.56
2019-04-23T04:26:21.084Z,7.65
2019-04-23T04:27:43.332Z,7.72
2019-04-23T04:28:23.606Z,7.60
2019-04-23T04:29:40.907Z,7.77
2019-04-23T04:32:33.717Z,7.54
2019-04-23T04:33:29.810Z,7.58
2019-04-23T04:34:56.079Z,6.97
2019-04-23T04:35:27.297Z,7.10
2019-04-23T04:36:32.574Z,7.61
2019-04-23T04:37:46.279Z,7.68
2019-04-23T04:39:34.053Z,7.53
2019-04-23T04:40:23.548Z,7.44
2019-04-23T04:41:26.056Z,7.51
2019-04-23T04:45:42.237Z,7.38
2019-04-23T04:47:36.809Z,7.45
2019-04-23T04:48:35.458Z,7.54
2019-04-23T04:49:21.451Z,7.22
2019-04-23T04:50:22.793Z,7.33
2019-04-23T04:51:46.245Z,7.49
2019-04-23T04:53:44.932Z,7.58
2019-04-23T04:55:21.184Z,7.14
2019-04-23T04:56:36.084Z,7.64
2019-04-23T04:57:35.963Z,7.78
2019-04-23T04:58:31.736Z,7.45
2019-04-23T04:59:22.760Z,7.69
2019-04-23T05:01:13.776Z,7.26
2019-04-23T05:02:41.724Z,7.68
2019-04-23T05:03:26.930Z,7.38
2019-04-23T05:04:39.924Z,7.22
2019-04-23T05:06:02.741Z,7.32
2019-04-23T05:06:37.888Z,7.74
2019-04-23T05:08:23.871Z,6.87
2019-04-23T05:10:28.832Z,7.51
2019-04-23T05:12:27.567Z,7.81
2019-04-23T05:13:41.270Z,7.71
2019-04-23T05:15:16.839Z,7.49
2019-04-23T05:16:27.564Z,7.76
2019-04-23T05:17:28.085Z,7.58
2019-04-23T05:18:31.744Z,7.80
2019-04-23T05:19:40.760Z,7.96
2019-04-23T05:20:26.105Z,7.99
2019-04-23T05:21:26.884Z,7.85
2019-04-23T05:23:25.460Z,8.03
2019-04-23T05:24:28.712Z,8.00
2019-04-23T05:25:24.370Z,7.61
2019-04-23T05:26:26.483Z,7.92
2019-04-23T05:27:28.942Z,7.92
2019-04-23T05:28:28.311Z,8.03
2019-04-23T05:29:27.625Z,8.11
2019-04-23T05:31:23.135Z,7.53
2019-04-23T05:32:28.741Z,8.47
2019-04-23T05:33:17.127Z,8.24
2019-04-23T05:34:22.626Z,8.35
2019-04-23T05:36:30.846Z,7.52
2019-04-23T05:37:33.408Z,8.36
2019-04-23T05:38:38.013Z,8.08
2019-04-23T05:39:31.325Z,8.49
2019-04-23T05:40:27.708Z,8.46
2019-04-23T05:41:17.232Z,8.54
2019-04-23T05:43:19.279Z,7.96
2019-04-23T05:45:16.656Z,8.41
2019-04-23T05:48:23.525Z,8.01
2019-04-23T05:49:26.176Z,8.53
2019-04-23T05:50:35.769Z,8.68
2019-04-23T05:51:31.183Z,8.45
2019-04-23T05:53:27.249Z,8.15
2019-04-23T05:55:13.613Z,8.51
2019-04-23T05:56:25.647Z,8.68
2019-04-23T05:57:20.278Z,8.38
2019-04-23T05:58:30.063Z,7.64
2019-04-23T05:59:28.125Z,8.47
2019-04-23T06:02:26.772Z,8.73
2019-04-23T06:04:19.542Z,9.37
2019-04-23T06:05:19.415Z,8.96
2019-04-23T06:06:21.714Z,9.03
2019-04-23T06:07:22.207Z,9.44
2019-04-23T06:10:19.733Z,8.51
2019-04-23T06:11:26.014Z,9.79
2019-04-23T06:12:13.790Z,9.27
2019-04-23T06:13:33.803Z,9.37
2019-04-23T06:14:20.346Z,9.57
2019-04-23T06:16:31.455Z,9.50
2019-04-23T06:17:21.684Z,9.73
2019-04-23T06:19:20.809Z,9.23
2019-04-23T06:20:31.497Z,9.21
2019-04-23T06:21:30.917Z,9.47
2019-04-23T06:22:31.501Z,9.62
2019-04-23T06:23:33.085Z,9.71
2019-04-23T06:24:29.008Z,8.89
2019-04-23T06:25:47.811Z,9.31
2019-04-23T06:27:26.031Z,9.68
2019-04-23T06:28:27.707Z,8.99
2019-04-23T06:30:33.206Z,10.28
2019-04-23T06:31:30.854Z,8.56
2019-04-23T06:32:26.067Z,10.02
2019-04-23T06:33:25.613Z,10.20
2019-04-23T06:35:22.549Z,9.59
2019-04-23T06:39:15.852Z,10.22
2019-04-23T06:44:25.587Z,10.38
2019-04-23T06:45:26.041Z,10.70
2019-04-23T06:46:30.703Z,10.65
2019-04-23T06:47:17.049Z,10.31
2019-04-23T06:48:32.010Z,9.99
2019-04-23T06:50:27.174Z,10.18
2019-04-23T06:51:27.231Z,10.77
2019-04-23T06:52:19.216Z,10.74
2019-04-23T06:54:25.584Z,10.70
2019-04-23T06:56:26.825Z,10.57
2019-04-23T06:57:22.333Z,10.88
2019-04-23T06:58:20.801Z,9.44
2019-04-23T06:59:24.475Z,10.70
2019-04-23T07:00:29.350Z,10.85
2019-04-23T07:01:09.697Z,8.93
2019-04-23T07:02:30.619Z,10.61
2019-04-23T07:04:29.051Z,10.91
2019-04-23T07:05:23.850Z,10.59
2019-04-23T07:07:46.567Z,10.74
2019-04-23T07:08:34.198Z,11.09
2019-04-23T07:09:10.787Z,11.21
2019-04-23T07:10:25.247Z,11.30
2019-04-23T07:11:28.789Z,10.47
2019-04-23T07:12:22.004Z,11.04
2019-04-23T07:13:35.524Z,11.52
2019-04-23T07:14:34.071Z,10.53
2019-04-23T07:16:21.585Z,11.44
2019-04-23T07:17:13.859Z,11.10
2019-04-23T07:18:27.844Z,10.78
2019-04-23T07:19:18.403Z,11.22
2019-04-23T07:20:15.216Z,11.15
2019-04-23T07:21:22.132Z,11.63
2019-04-23T07:22:21.600Z,10.87
2019-04-23T07:23:34.292Z,11.61
2019-04-23T07:24:21.413Z,11.48
2019-04-23T07:25:22.361Z,11.84
2019-04-23T07:29:25.944Z,11.79
2019-04-23T07:30:13.109Z,11.43
2019-04-23T07:31:29.898Z,11.29
2019-04-23T07:32:29.009Z,10.62
2019-04-23T07:34:20.325Z,9.61
2019-04-23T07:35:13.394Z,11.72
2019-04-23T07:38:32.758Z,11.28
2019-04-23T07:39:23.547Z,10.43
2019-04-23T07:41:30.289Z,11.89
2019-04-23T07:42:24.750Z,11.74
2019-04-23T07:43:22.479Z,11.89
2019-04-23T07:44:21.036Z,11.85
2019-04-23T07:45:17.543Z,12.25
2019-04-23T07:46:33.193Z,12.44
2019-04-23T07:48:16.455Z,12.31
2019-04-23T07:49:25.011Z,11.60
2019-04-23T07:50:38.174Z,12.67
2019-04-23T07:51:27.708Z,12.57
2019-04-23T07:52:15.026Z,12.88
2019-04-23T07:53:27.306Z,12.25
2019-04-23T07:55:36.255Z,12.46
2019-04-23T07:56:13.140Z,12.58
2019-04-23T07:57:26.802Z,12.84
2019-04-23T07:58:27.261Z,12.27
2019-04-23T07:59:25.343Z,11.29
2019-04-23T08:00:36.642Z,11.51
2019-04-23T08:01:25.258Z,11.62
2019-04-23T08:02:26.910Z,12.46
2019-04-23T08:03:30.711Z,12.51
2019-04-23T08:04:31.737Z,12.43
2019-04-23T08:09:20.476Z,12.58
2019-04-23T08:10:18.580Z,12.38
2019-04-23T08:11:30.496Z,12.46
2019-04-23T08:13:32.323Z,12.52
2019-04-23T08:14:13.665Z,12.56
2019-04-23T08:15:28.107Z,12.72
2019-04-23T08:17:24.369Z,12.95
2019-04-23T08:18:29.750Z,13.21
2019-04-23T08:19:34.950Z,12.92
2019-04-23T08:20:16.352Z,13.18
2019-04-23T08:21:29.573Z,12.40
2019-04-23T08:22:30.365Z,13.10
2019-04-23T08:23:16.481Z,12.82
2019-04-23T08:25:31.934Z,13.10
2019-04-23T08:27:21.504Z,12.81
2019-04-23T08:28:37.186Z,11.69
2019-04-23T08:29:22.125Z,12.26
2019-04-23T08:30:24.047Z,12.17
2019-04-23T08:33:23.376Z,11.82
2019-04-23T08:34:25.682Z,12.81
2019-04-23T08:35:23.209Z,13.36
2019-04-23T08:36:27.288Z,13.77
2019-04-23T08:37:15.425Z,13.56
2019-04-23T08:38:25.960Z,13.21
2019-04-23T08:39:18.165Z,13.42
2019-04-23T08:40:29.697Z,11.88
2019-04-23T08:41:22.921Z,13.34
2019-04-23T08:44:28.832Z,13.92
2019-04-23T08:45:22.674Z,14.22
2019-04-23T08:46:33.038Z,13.67
2019-04-23T08:49:29.573Z,13.86
2019-04-23T08:50:29.258Z,13.70
2019-04-23T08:51:38.939Z,13.36
2019-04-23T08:52:27.176Z,13.97
2019-04-23T08:54:25.298Z,13.82
2019-04-23T08:55:34.896Z,11.63
2019-04-23T08:56:15.117Z,12.59
2019-04-23T08:58:23.620Z,13.28
2019-04-23T08:59:33.142Z,13.16
2019-04-23T09:00:31.432Z,13.55
2019-04-23T09:01:27.628Z,12.84
2019-04-23T09:02:31.254Z,13.57
2019-04-23T09:03:25.813Z,13.84
2019-04-23T09:05:32.429Z,13.23
2019-04-23T09:06:21.821Z,13.53
2019-04-23T09:09:27.139Z,14.03
2019-04-23T09:10:26.380Z,14.13
2019-04-23T09:11:32.407Z,13.60
2019-04-23T09:14:20.549Z,13.93
2019-04-23T09:15:33.020Z,13.90
2019-04-23T09:16:28.440Z,14.09
2019-04-23T09:17:30.486Z,14.57
2019-04-23T09:21:30.854Z,13.03
2019-04-23T09:22:30.972Z,14.07
2019-04-23T09:23:21.130Z,13.39
2019-04-23T09:24:27.666Z,14.47
2019-04-23T09:26:24.634Z,13.92
2019-04-23T09:27:27.529Z,14.28
2019-04-23T09:28:38.857Z,14.22
2019-04-23T09:29:32.106Z,12.77
2019-04-23T09:31:23.153Z,13.77
2019-04-23T09:32:29.859Z,13.92
2019-04-23T09:33:36.362Z,14.14
2019-04-23T09:34:31.514Z,13.14
2019-04-23T09:35:27.570Z,14.61
2019-04-23T09:36:30.810Z,15.01
2019-04-23T09:37:26.768Z,14.62
2019-04-23T09:40:31.505Z,11.41
2019-04-23T09:41:16.677Z,14.90
2019-04-23T09:42:31.873Z,14.45
2019-04-23T09:44:48.560Z,14.33
2019-04-23T09:45:27.989Z,13.37
2019-04-23T09:46:25.712Z,13.18
2019-04-23T09:48:11.979Z,13.26
2019-04-23T09:49:31.092Z,14.80
2019-04-23T09:50:33.196Z,14.22
2019-04-23T09:53:27.751Z,13.39
2019-04-23T09:54:23.615Z,14.25
2019-04-23T09:55:22.202Z,14.10
2019-04-23T09:56:32.848Z,14.52
2019-04-23T09:57:26.500Z,15.29
2019-04-23T09:59:31.232Z,14.81
2019-04-23T10:00:30.872Z,14.23
2019-04-23T10:01:25.892Z,15.09
2019-04-23T10:02:17.519Z,15.48
2019-04-23T10:03:04.878Z,14.84
2019-04-23T10:04:08.744Z,15.36
2019-04-23T10:05:07.284Z,15.24
2019-04-23T10:06:07.734Z,15.33
2019-04-23T10:07:15.225Z,15.62
2019-04-23T10:08:07.927Z,14.95
2019-04-23T10:09:02.657Z,15.17
2019-04-23T10:09:59.697Z,14.91
2019-04-23T10:10:59.779Z,14.85
2019-04-23T10:12:00.866Z,14.63
2019-04-23T10:13:00.179Z,14.79
2019-04-23T10:14:00.588Z,15.11
2019-04-23T10:15:09.343Z,15.06
2019-04-23T10:16:00.097Z,15.47
2019-04-23T10:16:59.988Z,14.23
2019-04-23T10:18:00.275Z,15.51
2019-04-23T10:19:03.814Z,14.25
2019-04-23T10:20:00.682Z,14.07
2019-04-23T10:20:59.337Z,14.50
2019-04-23T10:21:59.703Z,15.38
2019-04-23T10:23:00.182Z,14.70
2019-04-23T10:23:59.405Z,14.82
2019-04-23T10:24:59.526Z,15.52
2019-04-23T10:25:59.374Z,15.36
2019-04-23T10:27:00.089Z,15.70
2019-04-23T10:28:03.198Z,15.24
2019-04-23T10:29:00.104Z,15.71
2019-04-23T10:29:59.728Z,14.61
2019-04-23T10:31:00.668Z,15.20
2019-04-23T10:31:59.788Z,13.95
2019-04-23T10:32:59.545Z,15.56
2019-04-23T10:34:00.098Z,15.61
2019-04-23T10:35:06.712Z,15.85
2019-04-23T10:36:03.244Z,15.90
2019-04-23T10:36:59.679Z,15.44
2019-04-23T10:38:04.525Z,16.25
2019-04-23T10:39:06.129Z,16.13
2019-04-23T10:40:03.558Z,16.13
2019-04-23T10:41:00.368Z,16.02
2019-04-23T10:42:02.851Z,16.00
2019-04-23T10:43:01.258Z,15.76
2019-04-23T10:44:00.769Z,14.43
2019-04-23T10:45:14.983Z,15.25
2019-04-23T10:46:16.875Z,16.20
2019-04-23T10:47:26.690Z,16.23
2019-04-23T10:49:40.503Z,14.20
2019-04-23T10:50:35.043Z,15.78
2019-04-23T10:51:33.984Z,14.99
2019-04-23T10:52:26.430Z,14.28
2019-04-23T10:53:32.910Z,15.47
2019-04-23T10:54:37.697Z,16.10
2019-04-23T10:57:19.947Z,15.61
2019-04-23T10:58:15.768Z,14.94
2019-04-23T10:59:28.780Z,16.14
2019-04-23T11:00:30.712Z,15.37
2019-04-23T11:01:27.919Z,16.30
2019-04-23T11:03:42.233Z,16.13
2019-04-23T11:04:44.731Z,15.92
2019-04-23T11:05:35.470Z,15.49
2019-04-23T11:06:32.517Z,16.15
2019-04-23T11:07:30.864Z,15.81
2019-04-23T11:08:25.624Z,16.14
2019-04-23T11:09:42.482Z,16.54
2019-04-23T11:10:22.007Z,16.23
2019-04-23T11:11:32.622Z,16.29
2019-04-23T11:12:37.123Z,16.57
2019-04-23T11:13:31.847Z,16.12
2019-04-23T11:15:44.161Z,16.34
2019-04-23T11:17:35.473Z,15.10
2019-04-23T11:18:38.327Z,16.10
2019-04-23T11:19:32.016Z,16.41
2019-04-23T11:20:25.425Z,15.95
2019-04-23T11:21:24.001Z,15.09
2019-04-23T11:22:42.598Z,15.84
2019-04-23T11:23:29.062Z,16.06
2019-04-23T11:24:38.057Z,15.72
2019-04-23T11:25:31.522Z,16.06
2019-04-23T11:26:24.397Z,16.81
2019-04-23T11:28:27.472Z,16.94
2019-04-23T11:29:34.037Z,16.90
2019-04-23T11:31:25.891Z,16.55
2019-04-23T11:34:50.356Z,16.50
2019-04-23T11:36:49.165Z,16.92
2019-04-23T11:37:29.843Z,16.16
2019-04-23T11:37:58.721Z,16.16
2019-04-23T11:38:50.926Z,17.37
2019-04-23T11:39:32.646Z,17.40
2019-04-23T11:40:26.148Z,16.65
2019-04-23T11:42:35.714Z,17.26
2019-04-23T11:43:22.716Z,16.97
2019-04-23T11:44:36.497Z,15.97
2019-04-23T11:46:32.287Z,16.92
2019-04-23T11:49:44.970Z,16.05
2019-04-23T11:51:41.828Z,17.36
2019-04-23T11:52:36.568Z,17.23
2019-04-23T11:53:35.977Z,16.01
2019-04-23T11:55:41.237Z,17.08
2019-04-23T11:58:26.939Z,17.06
2019-04-23T11:59:36.113Z,15.86
2019-04-23T12:00:38.566Z,16.01
2019-04-23T12:01:42.885Z,16.76
2019-04-23T12:02:35.439Z,16.49
2019-04-23T12:03:26.564Z,17.26
2019-04-23T12:06:24.362Z,17.47
2019-04-23T12:08:36.503Z,17.42
2019-04-23T12:10:42.628Z,17.02
2019-04-23T12:12:25.134Z,17.86
2019-04-23T12:12:28.515Z,17.18
2019-04-23T12:15:32.733Z,16.98
2019-04-23T12:16:27.960Z,17.15
2019-04-23T12:18:32.015Z,17.87
2019-04-23T12:19:39.298Z,17.49
2019-04-23T12:22:29.530Z,17.49
2019-04-23T12:23:33.319Z,17.28
2019-04-23T12:25:32.741Z,18.02
2019-04-23T12:27:30.675Z,18.03
2019-04-23T12:28:30.578Z,18.15
2019-04-23T12:29:33.611Z,17.91
2019-04-23T12:31:31.472Z,18.14
2019-04-23T12:33:20.344Z,17.58
2019-04-23T12:34:35.725Z,18.62
2019-04-23T12:35:19.308Z,18.31
2019-04-23T12:36:26.201Z,18.47
2019-04-23T12:37:25.689Z,19.16
2019-04-23T12:38:23.846Z,18.96
2019-04-23T12:40:24.864Z,18.66
2019-04-23T12:41:25.719Z,18.57
2019-04-23T12:42:48.454Z,18.14
2019-04-23T12:43:25.576Z,16.90
2019-04-23T12:44:30.612Z,16.93
2019-04-23T12:45:31.765Z,18.40
2019-04-23T12:46:33.093Z,18.26
2019-04-23T12:48:31.164Z,17.11
2019-04-23T12:49:45.858Z,17.77
2019-04-23T12:52:34.347Z,17.42
2019-04-23T12:53:25.866Z,17.69
2019-04-23T12:54:41.490Z,17.39
2019-04-23T12:57:17.998Z,17.27
2019-04-23T12:58:26.906Z,16.63
2019-04-23T12:59:27.222Z,17.65
2019-04-23T13:01:35.853Z,17.67
2019-04-23T13:03:29.820Z,17.32
2019-04-23T13:04:35.711Z,16.98
2019-04-23T13:05:27.045Z,17.83
2019-04-23T13:07:36.981Z,18.12
2019-04-23T13:09:41.826Z,16.96
2019-04-23T13:10:30.257Z,17.53
2019-04-23T13:11:32.561Z,16.45
2019-04-23T13:12:37.781Z,17.88
2019-04-23T13:13:27.986Z,17.10
2019-04-23T13:14:36.359Z,17.91
2019-04-23T13:15:30.888Z,17.50
2019-04-23T13:16:39.903Z,17.71
2019-04-23T13:19:39.854Z,17.71
2019-04-23T13:22:31.868Z,17.59
2019-04-23T13:26:24.805Z,17.89
2019-04-23T13:27:38.396Z,17.27
2019-04-23T13:28:27.991Z,18.20
2019-04-23T13:32:27.816Z,18.74
2019-04-23T13:33:34.788Z,18.47
2019-04-23T13:34:38.540Z,17.88
2019-04-23T13:37:36.958Z,17.82
2019-04-23T13:39:20.415Z,17.88
2019-04-23T13:40:29.250Z,17.30
2019-04-23T13:41:17.407Z,18.20
2019-04-23T13:42:42.068Z,18.06
2019-04-23T13:44:17.571Z,18.50
2019-04-23T13:46:21.774Z,18.27
2019-04-23T13:47:42.977Z,18.12
2019-04-23T13:49:27.780Z,17.58
2019-04-23T13:50:37.243Z,18.38
2019-04-23T13:51:27.374Z,16.81
2019-04-23T13:52:43.280Z,17.65
2019-04-23T13:53:42.630Z,16.89
2019-04-23T13:54:50.214Z,17.18
2019-04-23T13:55:22.890Z,17.87
2019-04-23T13:56:47.911Z,17.80
2019-04-23T13:57:59.306Z,17.39
2019-04-23T13:58:21.583Z,17.28
2019-04-23T14:00:25.063Z,17.54
2019-04-23T14:01:30.762Z,17.29
2019-04-23T14:02:40.348Z,17.57
2019-04-23T14:04:24.876Z,18.04
2019-04-23T14:05:28.123Z,17.87
2019-04-23T14:06:25.659Z,18.04
2019-04-23T14:07:30.377Z,18.77
2019-04-23T14:10:20.119Z,16.08
2019-04-23T14:11:26.018Z,18.02
2019-04-23T14:12:32.213Z,17.17
2019-04-23T14:14:28.287Z,18.00
2019-04-23T14:38:22.110Z,21.25
2019-04-23T14:42:24.424Z,21.82
2019-04-23T14:43:23.871Z,21.96
2019-04-23T14:44:11.391Z,22.04
2019-04-23T14:46:33.725Z,22.24
2019-04-23T14:47:23.875Z,22.33
2019-04-23T14:48:17.007Z,22.41
2019-04-23T14:49:13.209Z,22.48
2019-04-23T14:52:21.656Z,22.68
2019-04-23T14:54:24.950Z,22.80
2019-04-23T14:56:20.194Z,22.90
2019-04-23T14:58:25.461Z,23.00
2019-04-23T15:01:35.373Z,23.11
2019-04-23T15:02:13.899Z,23.12
2019-04-23T15:03:27.178Z,23.13
2019-04-23T15:04:19.230Z,23.17
2019-04-23T15:06:27.735Z,23.25
2019-04-23T15:07:23.003Z,23.29
2019-04-23T15:08:15.615Z,23.34
2019-04-23T15:09:13.973Z,23.35
2019-04-23T15:14:47.331Z,23.46
2019-04-23T15:15:31.878Z,23.48
2019-04-23T15:16:39.884Z,23.45
2019-04-23T15:19:10.999Z,23.56
2019-04-23T15:22:07.840Z,23.55
2019-04-23T15:24:23.180Z,23.61
2019-04-23T15:26:47.736Z,23.62
2019-04-23T15:28:07.315Z,23.60
2019-04-23T15:29:02.778Z,23.67
2019-04-23T15:30:10.614Z,23.68
2019-04-23T15:31:23.487Z,23.66
2019-04-23T15:34:04.269Z,23.66
2019-04-23T15:36:02.267Z,23.65
2019-04-23T15:39:55.140Z,23.68
2019-04-23T15:50:29.760Z,23.80
2019-04-23T16:10:22.271Z,23.79
2019-04-23T16:20:39.232Z,23.75
2019-04-23T16:30:14.294Z,23.75
2019-04-23T16:40:33.166Z,23.74
